Time;durP1;ratioP1;P1;durP2;ratioP2;P2;SDS_P1;SDS_P2;PMS_P1;PMS_P2;Temp;Humidity;BMP_temperature;BMP_pressure;BME280_temperature;BME280_humidity;BME280_pressure;Samples;Min_cycle;Max_cycle;Signal;HPM_P1;HPM_P2
2022/12/02 00:01:50;;;;;;;20.75;13.10;;;;;;;5.96;100.00;99883.78;5052967;28;20083;-68
2022/12/02 00:04:20;;;;;;;21.23;13.40;;;;;;;6.03;100.00;99882.38;5051853;28;20484;-68
2022/12/02 00:06:52;;;;;;;19.02;13.05;;;;;;;6.14;100.00;99887.78;5033664;28;20036;-68
2022/12/02 00:09:34;;;;;;;23.17;13.70;;;;;;;6.14;100.00;99887.78;5052634;28;20083;-68
2022/12/02 00:12:21;;;;;;;31.08;17.75;;;;;;;6.22;100.00;99881.59;5034869;28;20056;-68
2022/12/02 00:15:12;;;;;;;27.02;15.68;;;;;;;6.22;100.00;99883.56;4974742;28;20038;-68
2022/12/02 00:17:37;;;;;;;27.45;15.98;;;;;;;6.18;100.00;99883.31;4985092;28;20081;-68
2022/12/02 00:20:03;;;;;;;24.25;14.45;;;;;;;6.25;100.00;99883.78;4989892;28;20034;-68
2022/12/02 00:22:29;;;;;;;26.80;14.55;;;;;;;6.29;100.00;99886.78;4974869;28;20030;-68
2022/12/02 00:24:54;;;;;;;22.08;15.05;;;;;;;6.35;100.00;99888.41;4974664;28;20103;-68
2022/12/02 00:27:19;;;;;;;22.15;13.43;;;;;;;6.40;100.00;99884.72;4974742;28;20037;-68
2022/12/02 00:29:45;;;;;;;29.15;15.50;;;;;;;6.27;100.00;99889.84;4990954;28;20034;-68
2022/12/02 00:32:10;;;;;;;26.52;15.07;;;;;;;6.24;100.00;99890.44;4990972;28;20023;-68
2022/12/02 00:34:36;;;;;;;30.00;16.88;;;;;;;6.36;100.00;99894.75;4985331;28;20495;-68
2022/12/02 00:37:01;;;;;;;31.58;15.65;;;;;;;6.33;100.00;99893.41;4984278;28;20449;-69
2022/12/02 00:39:27;;;;;;;27.80;15.38;;;;;;;6.33;100.00;99885.06;4970269;28;20031;-68
2022/12/02 00:41:52;;;;;;;23.02;13.63;;;;;;;6.40;100.00;99890.28;4971457;28;20114;-68
2022/12/02 00:47:02;;;;;;;24.88;15.82;;;;;;;6.02;100.00;99890.97;5045319;28;20082;-68
2022/12/02 00:49:27;;;;;;;25.15;14.90;;;;;;;6.15;100.00;99883.88;5033041;28;20024;-68
2022/12/02 00:51:52;;;;;;;30.73;16.23;;;;;;;6.16;100.00;99886.38;5051941;28;20044;-68
2022/12/02 00:54:18;;;;;;;26.40;14.95;;;;;;;6.28;100.00;99893.47;5049722;28;20020;-69
2022/12/02 00:56:43;;;;;;;26.35;16.13;;;;;;;6.16;100.00;99891.94;5050255;28;20553;-68
2022/12/02 00:59:09;;;;;;;26.05;16.52;;;;;;;5.93;100.00;99892.72;5051825;28;20498;-68
2022/12/02 01:01:35;;;;;;;28.77;17.73;;;;;;;5.87;100.00;99883.59;5050532;28;20094;-68
2022/12/02 01:04:00;;;;;;;33.95;20.90;;;;;;;5.95;100.00;99884.91;5032877;28;20017;-68
2022/12/02 01:06:26;;;;;;;30.38;19.05;;;;;;;6.09;100.00;99885.88;5033390;28;20045;-69
2022/12/02 01:08:51;;;;;;;30.77;18.65;;;;;;;6.14;100.00;99876.69;5034021;28;20454;-68
2022/12/02 01:11:17;;;;;;;25.17;16.35;;;;;;;6.19;100.00;99879.41;5033945;28;20047;-68
2022/12/02 01:13:43;;;;;;;28.38;17.55;;;;;;;6.09;100.00;99876.75;5051672;28;20029;-68
2022/12/02 01:16:08;;;;;;;31.80;16.48;;;;;;;6.10;100.00;99876.47;5051230;28;20472;-68
2022/12/02 01:18:34;;;;;;;27.77;16.40;;;;;;;6.09;100.00;99873.97;5050472;28;20033;-68
2022/12/02 01:21:01;;;;;;;26.25;16.65;;;;;;;6.14;100.00;99879.44;5033582;28;20601;-69
2022/12/02 01:23:26;;;;;;;25.80;15.80;;;;;;;6.00;100.00;99874.56;5051557;28;20412;-68
2022/12/02 01:25:51;;;;;;;24.52;15.60;;;;;;;5.97;100.00;99872.41;5051054;28;20033;-68
2022/12/02 01:28:17;;;;;;;24.50;16.08;;;;;;;5.73;100.00;99864.88;5049338;28;20415;-68
2022/12/02 01:30:43;;;;;;;31.23;17.27;;;;;;;5.72;100.00;99863.22;5050080;28;20135;-68
2022/12/02 01:33:08;;;;;;;24.38;15.98;;;;;;;5.62;100.00;99866.09;5032044;28;20063;-68
2022/12/02 01:35:34;;;;;;;26.67;16.05;;;;;;;5.72;100.00;99863.22;5051277;28;20028;-68
2022/12/02 01:37:59;;;;;;;23.00;15.57;;;;;;;5.71;100.00;99861.56;5051298;28;20480;-68
2022/12/02 01:40:26;;;;;;;23.10;16.80;;;;;;;5.70;100.00;99850.75;5051210;28;20033;-68
2022/12/02 01:42:52;;;;;;;26.60;16.52;;;;;;;5.93;100.00;99857.47;5031329;28;20120;-68
2022/12/02 01:45:18;;;;;;;26.83;14.88;;;;;;;5.82;100.00;99853.13;5051014;28;20480;-68
2022/12/02 01:47:43;;;;;;;25.50;15.15;;;;;;;5.83;100.00;99849.22;5022835;28;20049;-68
2022/12/02 01:50:12;;;;;;;27.13;16.08;;;;;;;5.83;100.00;99849.22;5030764;28;20174;-68
2022/12/02 01:52:38;;;;;;;25.17;15.68;;;;;;;6.00;100.00;99844.03;5012402;28;21290;-68
2022/12/02 01:55:06;;;;;;;22.88;15.13;;;;;;;6.21;100.00;99852.16;5029838;28;20440;-68
2022/12/02 01:57:31;;;;;;;21.40;14.00;;;;;;;6.28;100.00;99854.56;5031219;28;20033;-68
2022/12/02 01:59:57;;;;;;;20.23;13.82;;;;;;;6.30;100.00;99849.53;5030797;28;20032;-68
2022/12/02 02:02:37;;;;;;;19.73;13.50;;;;;;;6.26;100.00;99846.53;5013338;28;20029;-68
2022/12/02 02:05:08;;;;;;;20.17;13.63;;;;;;;6.32;100.00;99850.06;5031162;28;20484;-68
2022/12/02 02:07:35;;;;;;;24.17;14.02;;;;;;;6.36;100.00;99853.09;5029983;28;20027;-68
2022/12/02 02:10:00;;;;;;;26.83;14.73;;;;;;;6.40;99.85;99848.59;5011844;28;20025;-68
2022/12/02 02:12:26;;;;;;;22.25;14.02;;;;;;;6.42;99.35;99849.94;5030946;28;20037;-68
2022/12/02 02:14:52;;;;;;;17.80;12.60;;;;;;;6.26;98.76;99854.88;5031033;28;20037;-68
2022/12/02 02:17:18;;;;;;;21.55;13.63;;;;;;;6.00;99.92;99849.59;5030885;28;20037;-68
2022/12/02 02:19:43;;;;;;;20.40;13.82;;;;;;;6.01;99.54;99850.44;5030890;28;20177;-68
2022/12/02 02:22:24;;;;;;;20.17;14.48;;;;;;;6.10;99.84;99851.47;5012794;28;20060;-68
2022/12/02 02:24:50;;;;;;;24.58;13.00;;;;;;;5.95;100.00;99841.31;5029852;28;20037;-68
2022/12/02 02:27:15;;;;;;;22.30;14.00;;;;;;;6.04;99.78;99856.25;5030835;28;20025;-68
2022/12/02 02:29:41;;;;;;;25.60;15.23;;;;;;;6.15;99.53;99853.31;5013102;28;20412;-68
2022/12/02 02:32:06;;;;;;;19.15;13.95;;;;;;;6.28;99.52;99855.41;5030460;28;20036;-68
2022/12/02 02:34:32;;;;;;;22.48;16.77;;;;;;;6.23;99.45;99852.69;5030796;28;20061;-68
2022/12/02 02:36:58;;;;;;;19.80;12.77;;;;;;;6.36;99.70;99855.88;5030767;28;20036;-68
2022/12/02 02:39:24;;;;;;;23.85;14.05;;;;;;;6.36;99.13;99853.09;5029607;28;20036;-68
2022/12/02 02:41:53;;;;;;;19.40;13.13;;;;;;;6.36;99.28;99856.72;5030484;28;20034;-68
2022/12/02 02:44:19;;;;;;;21.45;14.43;;;;;;;6.38;99.43;99853.63;5030658;28;20021;-68
2022/12/02 02:46:44;;;;;;;20.40;13.93;;;;;;;6.31;99.68;99852.03;5030501;28;20063;-68
2022/12/02 02:49:10;;;;;;;19.63;13.40;;;;;;;6.34;98.91;99856.19;5012888;28;20042;-68
2022/12/02 02:51:36;;;;;;;17.70;12.73;;;;;;;6.43;99.26;99851.59;5030310;28;20037;-68
2022/12/02 02:54:01;;;;;;;17.27;11.80;;;;;;;6.34;98.97;99853.41;5029380;28;20108;-68
2022/12/02 02:56:27;;;;;;;22.73;14.60;;;;;;;6.41;98.75;99862.19;5030574;28;20021;-68
2022/12/02 02:58:53;;;;;;;22.52;15.77;;;;;;;6.44;99.12;99864.38;5012883;28;20021;-68
2022/12/02 03:01:32;;;;;;;20.23;14.00;;;;;;;6.32;98.61;99856.47;5029574;28;20029;-68
2022/12/02 03:04:04;;;;;;;21.75;13.82;;;;;;;6.37;98.28;99857.50;5034219;28;20026;-68
2022/12/02 03:06:32;;;;;;;21.05;13.20;;;;;;;6.30;98.51;99858.72;5034086;28;20129;-69
2022/12/02 03:08:59;;;;;;;22.92;13.57;;;;;;;6.33;98.74;99868.41;5032844;28;20104;-68
2022/12/02 03:11:26;;;;;;;20.38;13.55;;;;;;;6.27;98.55;99864.84;5033509;28;20036;-68
2022/12/02 03:13:54;;;;;;;20.95;13.88;;;;;;;6.29;98.60;99868.19;5034012;28;20087;-68
2022/12/02 03:16:21;;;;;;;23.58;15.75;;;;;;;6.35;98.58;99877.28;5033859;28;20029;-69
2022/12/02 03:18:49;;;;;;;21.73;16.40;;;;;;;6.31;99.08;99878.97;5033949;28;20029;-69
2022/12/02 03:21:17;;;;;;;25.88;16.83;;;;;;;6.16;98.80;99880.00;5015654;28;20030;-68
2022/12/02 03:23:44;;;;;;;22.80;14.68;;;;;;;6.16;99.51;99878.03;5032510;28;20036;-68
2022/12/02 03:26:11;;;;;;;23.85;15.65;;;;;;;6.23;99.20;99874.91;5033732;28;20386;-68
2022/12/02 03:28:36;;;;;;;23.77;15.98;;;;;;;6.30;98.93;99875.38;5033632;28;20036;-68
2022/12/02 03:31:02;;;;;;;25.50;17.13;;;;;;;6.37;99.63;99876.97;5033372;28;20033;-68
2022/12/02 03:33:28;;;;;;;26.63;20.02;;;;;;;6.36;99.47;99878.94;5033514;28;20053;-68
2022/12/02 03:35:54;;;;;;;27.13;18.15;;;;;;;6.30;99.60;99888.44;5033537;28;20064;-68
2022/12/02 03:38:19;;;;;;;25.92;16.75;;;;;;;6.16;100.00;99880.00;5014385;28;20052;-68
2022/12/02 03:40:45;;;;;;;24.02;15.93;;;;;;;6.13;100.00;99878.63;5033256;28;20025;-68
2022/12/02 03:43:11;;;;;;;26.23;15.73;;;;;;;6.17;100.00;99876.91;5033429;28;20013;-68
2022/12/02 03:45:36;;;;;;;23.67;15.15;;;;;;;6.29;100.00;99875.69;5033325;28;20489;-68
2022/12/02 03:48:04;;;;;;;26.60;15.55;;;;;;;6.14;99.95;99880.28;5033123;28;20049;-68
2022/12/02 03:50:30;;;;;;;27.70;16.00;;;;;;;6.27;100.00;99881.50;5033241;28;20025;-68
2022/12/02 03:52:55;;;;;;;22.48;14.05;;;;;;;6.28;99.81;99877.66;5032026;28;20033;-69
2022/12/02 03:55:21;;;;;;;27.58;16.02;;;;;;;6.36;99.25;99883.66;5029906;28;20030;-68
2022/12/02 03:57:46;;;;;;;25.55;15.50;;;;;;;6.32;98.90;99894.53;5015277;28;20112;-68
2022/12/02 04:00:13;;;;;;;25.98;15.75;;;;;;;6.34;99.18;99891.47;5033141;28;20140;-68
2022/12/02 04:02:38;;;;;;;23.80;14.73;;;;;;;6.41;98.70;99892.75;5032746;28;20378;-68
2022/12/02 04:05:04;;;;;;;26.70;15.93;;;;;;;6.48;98.86;99897.13;5012947;28;20032;-68
2022/12/02 04:07:30;;;;;;;23.50;13.05;;;;;;;6.51;98.15;99882.63;5032977;28;20033;-68
2022/12/02 04:09:55;;;;;;;25.38;14.65;;;;;;;6.46;98.27;99887.16;5015176;28;20041;-68
2022/12/02 04:12:21;;;;;;;24.30;15.32;;;;;;;6.54;98.07;99894.00;5032438;28;20033;-68
2022/12/02 04:14:46;;;;;;;25.52;14.38;;;;;;;6.53;97.89;99892.34;5032935;28;20408;-68
2022/12/02 04:17:12;;;;;;;24.13;14.27;;;;;;;6.51;97.45;99889.00;5032692;28;20048;-68
2022/12/02 04:19:37;;;;;;;23.30;13.95;;;;;;;6.29;97.78;99895.13;5031610;28;20025;-68
2022/12/02 04:22:03;;;;;;;28.88;16.05;;;;;;;6.43;97.66;99898.03;5032316;28;20064;-68
2022/12/02 04:24:28;;;;;;;25.08;13.48;;;;;;;6.31;97.97;99899.28;5032643;28;20026;-68
2022/12/02 04:26:55;;;;;;;24.52;12.65;;;;;;;6.37;97.98;99896.41;5032493;28;20033;-69
2022/12/02 04:29:20;;;;;;;24.58;13.38;;;;;;;6.44;97.33;99908.00;5032539;28;20033;-68
2022/12/02 04:31:45;;;;;;;28.52;15.32;;;;;;;6.46;97.36;99900.19;5032020;28;20084;-68
2022/12/02 04:34:11;;;;;;;25.75;13.00;;;;;;;6.34;97.72;99902.56;5013245;28;20029;-68
2022/12/02 04:36:36;;;;;;;25.80;13.82;;;;;;;6.38;98.28;99915.59;5032392;28;20025;-68
2022/12/02 04:39:03;;;;;;;22.52;12.55;;;;;;;6.31;97.95;99915.09;5014624;28;20037;-68
2022/12/02 04:41:28;;;;;;;26.50;12.02;;;;;;;6.16;97.94;99908.59;5014346;28;20095;-68
2022/12/02 04:43:54;;;;;;;19.85;11.45;;;;;;;6.12;97.95;99915.03;5032124;28;20034;-68
2022/12/02 04:46:19;;;;;;;26.33;13.75;;;;;;;5.85;99.28;99920.00;5032261;28;20412;-68
2022/12/02 04:48:45;;;;;;;25.60;12.68;;;;;;;5.88;99.59;99922.19;5030860;28;20057;-68
2022/12/02 04:51:10;;;;;;;25.13;11.82;;;;;;;5.99;99.44;99928.47;5031726;28;20060;-68
2022/12/02 04:53:36;;;;;;;27.35;12.88;;;;;;;6.07;98.77;99927.03;5032100;28;20025;-68
2022/12/02 04:56:04;;;;;;;28.65;15.07;;;;;;;5.96;99.03;99937.38;5014346;28;20037;-68
2022/12/02 04:58:30;;;;;;;26.35;14.80;;;;;;;5.92;99.25;99930.78;5031981;28;20052;-68
2022/12/02 05:00:55;;;;;;;29.08;14.38;;;;;;;5.87;98.60;99934.41;5028405;28;20029;-68
2022/12/02 05:03:21;;;;;;;26.95;13.40;;;;;;;5.86;98.58;99943.88;5030445;28;20487;-69
2022/12/02 05:05:46;;;;;;;29.98;13.65;;;;;;;5.73;98.27;99937.03;5031030;28;20057;-68
2022/12/02 05:08:12;;;;;;;26.50;14.25;;;;;;;5.72;98.87;99940.94;5029893;28;20112;-68
2022/12/02 05:10:37;;;;;;;27.10;14.80;;;;;;;5.58;99.86;99948.28;5026289;28;20563;-68
2022/12/02 05:13:03;;;;;;;38.55;17.85;;;;;;;5.65;99.67;99940.44;5031119;28;20025;-68
2022/12/02 05:15:28;;;;;;;38.58;19.70;;;;;;;5.76;99.30;99944.78;5014069;28;20029;-68
2022/12/02 05:17:54;;;;;;;36.80;18.58;;;;;;;5.71;98.95;99939.28;5029505;28;20025;-68
2022/12/02 05:20:19;;;;;;;45.42;20.65;;;;;;;5.67;98.00;99945.69;5026124;28;20489;-68
2022/12/02 05:22:45;;;;;;;42.25;18.10;;;;;;;5.58;97.62;99949.09;5029324;28;21195;-68
2022/12/02 05:25:11;;;;;;;42.58;19.80;;;;;;;5.53;97.89;99954.69;5009775;28;20563;-68
2022/12/02 05:27:36;;;;;;;35.85;17.08;;;;;;;5.46;98.06;99957.78;5011724;28;20021;-68
2022/12/02 05:30:03;;;;;;;29.70;16.67;;;;;;;5.64;98.05;99955.44;5010255;28;20029;-66
2022/12/02 05:32:29;;;;;;;35.63;19.48;;;;;;;5.84;97.69;99943.31;5010481;28;20033;-67
2022/12/02 05:34:54;;;;;;;33.10;17.05;;;;;;;5.90;96.91;99952.41;5029060;28;20036;-67
2022/12/02 05:37:20;;;;;;;30.58;16.15;;;;;;;5.76;97.19;99944.78;5021647;28;20022;-69
2022/12/02 05:39:45;;;;;;;30.50;14.70;;;;;;;5.87;97.19;99956.63;5027710;28;20041;-65
2022/12/02 05:42:12;;;;;;;34.13;15.55;;;;;;;6.02;95.93;99952.09;5031350;28;20100;-66
2022/12/02 05:44:39;;;;;;;31.80;15.38;;;;;;;5.99;95.98;99956.22;5022923;28;20646;-66
2022/12/02 05:47:16;;;;;;;33.83;14.52;;;;;;;6.10;96.10;99954.22;5026538;28;20065;-66
2022/12/02 05:49:43;;;;;;;36.60;17.58;;;;;;;6.19;95.62;99957.19;5016339;28;20032;-65
2022/12/02 05:52:26;;;;;;;31.33;16.88;;;;;;;6.20;95.62;99952.44;5011622;28;20033;-65
2022/12/02 05:54:54;;;;;;;36.92;19.52;;;;;;;6.28;94.73;99949.88;5030006;28;20029;-64
2022/12/02 05:57:23;;;;;;;38.17;20.45;;;;;;;6.39;95.00;99955.28;5028010;28;20025;-64
2022/12/02 05:59:50;;;;;;;41.78;24.00;;;;;;;6.38;94.86;99954.47;5029966;28;20086;-65
2022/12/02 06:02:30;;;;;;;39.00;25.25;;;;;;;6.48;94.86;99958.28;5029655;28;20029;-65
2022/12/02 06:04:55;;;;;;;37.50;21.10;;;;;;;6.50;94.68;99961.59;5030954;28;20072;-64
2022/12/02 06:07:21;;;;;;;42.17;21.88;;;;;;;6.51;94.74;99955.72;5031005;28;20036;-65
2022/12/02 06:09:47;;;;;;;50.80;24.83;;;;;;;6.53;93.75;99967.38;5029357;28;20029;-67
2022/12/02 06:12:17;;;;;;;47.92;24.55;;;;;;;6.58;93.55;99963.72;5012766;28;20037;-64
2022/12/02 06:14:51;;;;;;;53.92;27.17;;;;;;;6.64;93.68;99967.28;5027088;28;20440;-65
2022/12/02 06:17:17;;;;;;;56.67;27.48;;;;;;;6.55;93.96;99967.06;5006754;28;20398;-64
2022/12/02 06:19:50;;;;;;;66.22;35.95;;;;;;;6.43;94.94;99973.06;5028558;28;20029;-65
2022/12/02 06:22:28;;;;;;;68.88;38.15;;;;;;;6.28;95.95;99974.03;5012857;28;20112;-67
2022/12/02 06:24:54;;;;;;;64.07;36.88;;;;;;;6.46;95.64;99970.53;5009136;28;20025;-67
2022/12/02 06:27:21;;;;;;;94.38;50.33;;;;;;;6.18;95.29;99972.22;5030047;28;20025;-67
2022/12/02 06:29:53;;;;;;;123.03;56.88;;;;;;;6.48;95.16;99981.31;5030156;28;20092;-65
2022/12/02 06:32:21;;;;;;;105.85;51.45;;;;;;;6.48;94.12;99975.75;5030459;28;20452;-68
2022/12/02 06:34:51;;;;;;;101.60;45.58;;;;;;;6.57;94.35;99984.28;5030653;28;20484;-68
2022/12/02 06:37:29;;;;;;;73.15;37.50;;;;;;;6.70;94.06;99988.31;5031318;28;20033;-66
2022/12/02 06:39:57;;;;;;;90.88;50.05;;;;;;;6.75;94.15;99996.56;5033835;28;20480;-65
2022/12/02 06:42:34;;;;;;;98.75;51.28;;;;;;;6.68;93.44;99985.81;5029584;28;20492;-68
2022/12/02 06:45:13;;;;;;;69.97;40.20;;;;;;;6.71;94.08;99990.81;5033865;28;20481;-64
2022/12/02 06:47:38;;;;;;;60.15;35.15;;;;;;;6.72;94.02;99997.19;5033523;28;20049;-67
2022/12/02 06:50:04;;;;;;;64.03;35.83;;;;;;;6.39;95.53;100003.38;5033438;28;20033;-67
2022/12/02 06:52:33;;;;;;;40.95;23.95;;;;;;;6.29;96.75;100001.53;5032979;28;20033;-68
2022/12/02 06:54:59;;;;;;;31.25;19.23;;;;;;;6.25;96.96;100002.41;5033240;28;20025;-67
2022/12/02 06:57:26;;;;;;;31.65;17.95;;;;;;;6.44;96.48;99992.19;5003030;28;20041;-69
2022/12/02 06:59:51;;;;;;;24.80;15.15;;;;;;;6.60;96.19;99998.41;5005414;28;20017;-67
2022/12/02 07:02:29;;;;;;;27.92;16.20;;;;;;;6.47;95.95;100004.69;5006841;28;20026;-69
2022/12/02 07:04:56;;;;;;;27.45;15.90;;;;;;;6.44;96.52;100002.50;5024724;28;20056;-66
2022/12/02 07:07:34;;;;;;;35.80;22.10;;;;;;;6.65;95.81;100000.31;5026833;28;20041;-67
2022/12/02 07:10:03;;;;;;;46.47;29.63;;;;;;;6.78;95.72;100006.28;5030804;28;20029;-67
2022/12/02 07:12:44;;;;;;;20.63;11.32;;;;;;;6.78;95.54;100006.28;5014134;28;20030;-68
2022/12/02 07:15:26;;;;;;;21.60;11.68;;;;;;;6.77;95.11;100011.03;5033883;28;20560;-67
2022/12/02 07:17:55;;;;;;;19.70;11.27;;;;;;;6.67;95.28;100011.97;5032802;28;20033;-66
2022/12/02 07:20:36;;;;;;;25.85;14.20;;;;;;;6.72;95.09;100013.84;5033643;28;20416;-66
2022/12/02 07:23:24;;;;;;;40.22;16.55;;;;;;;6.88;94.46;100012.56;5015578;28;20041;-68
2022/12/02 07:25:51;;;;;;;32.50;18.40;;;;;;;7.02;94.03;100004.31;5030554;28;20043;-68
2022/12/02 07:28:24;;;;;;;32.38;19.67;;;;;;;7.13;93.93;100009.75;5031850;28;20539;-68
2022/12/02 07:31:12;;;;;;;33.88;21.60;;;;;;;7.14;93.01;100009.44;5025357;28;20029;-67
2022/12/02 07:33:37;;;;;;;77.68;47.75;;;;;;;7.18;92.38;100000.50;5013885;28;20424;-66
2022/12/02 07:36:03;;;;;;;45.22;27.27;;;;;;;7.24;91.37;100011.25;5034632;28;20022;-67
2022/12/02 07:38:28;;;;;;;141.23;73.53;;;;;;;7.18;90.77;100009.69;5031466;28;20028;-67
2022/12/02 07:40:54;;;;;;;81.25;41.45;;;;;;;7.15;90.43;100011.09;5031590;28;20115;-66
2022/12/02 07:43:19;;;;;;;591.08;353.15;;;;;;;7.19;90.34;100013.28;5030501;28;20386;-66
2022/12/02 07:45:45;;;;;;;236.00;124.10;;;;;;;7.29;90.63;100015.94;5032942;28;20030;-69
2022/12/02 07:48:11;;;;;;;165.02;93.20;;;;;;;7.26;90.38;100009.00;5031923;28;20072;-68
2022/12/02 07:50:36;;;;;;;140.00;76.18;;;;;;;7.24;90.42;100018.75;5014454;28;20116;-74
2022/12/02 07:53:02;;;;;;;158.27;93.68;;;;;;;7.42;89.77;100028.25;5031061;28;20025;-71
2022/12/02 07:55:27;;;;;;;50.92;33.03;;;;;;;7.38;88.53;100030.00;5030457;28;20065;-73
2022/12/02 07:57:53;;;;;;;33.85;19.40;;;;;;;7.33;88.89;100025.31;5032664;28;20076;-71
2022/12/02 08:00:19;;;;;;;28.00;17.35;;;;;;;7.45;88.96;100025.72;5027852;28;20029;-70
2022/12/02 08:02:45;;;;;;;23.27;13.20;;;;;;;7.53;87.72;100029.75;5026537;28;20412;-72
2022/12/02 08:05:11;;;;;;;22.95;12.52;;;;;;;7.22;87.85;100026.59;5022237;28;20031;-73
2022/12/02 08:07:37;;;;;;;22.33;12.90;;;;;;;7.06;89.10;100034.31;5035797;28;20064;-70
2022/12/02 08:10:05;;;;;;;16.75;9.77;;;;;;;6.88;88.72;100029.25;5031064;28;20037;-70
2022/12/02 08:12:31;;;;;;;17.00;10.55;;;;;;;7.17;88.52;100024.69;5014374;28;20029;-70
2022/12/02 08:14:57;;;;;;;25.55;13.25;;;;;;;7.05;87.17;100027.94;5029695;28;20029;-72
2022/12/02 08:17:22;;;;;;;24.83;14.85;;;;;;;7.23;86.74;100020.75;5028404;28;20130;-72
2022/12/02 08:19:48;;;;;;;16.52;11.02;;;;;;;7.44;87.48;100032.41;5013670;28;20025;-72
2022/12/02 08:22:13;;;;;;;18.63;11.55;;;;;;;7.48;87.10;100031.78;5028206;28;20037;-72
2022/12/02 08:24:39;;;;;;;21.55;13.85;;;;;;;7.21;87.76;100030.50;5028285;28;20025;-73
2022/12/02 08:27:04;;;;;;;22.08;12.45;;;;;;;7.35;87.22;100033.38;5029012;28;20083;-74
2022/12/02 08:29:30;;;;;;;32.42;22.52;;;;;;;7.42;87.39;100028.25;5009345;28;20099;-71
2022/12/02 08:31:55;;;;;;;26.55;16.20;;;;;;;7.38;88.11;100030.00;5029410;28;20026;-72
2022/12/02 08:34:21;;;;;;;25.13;13.95;;;;;;;7.67;87.75;100038.19;5023224;28;20042;-75
2022/12/02 08:36:46;;;;;;;20.52;12.85;;;;;;;7.44;87.88;100046.31;5027334;28;20061;-74
2022/12/02 08:39:12;;;;;;;21.98;11.65;;;;;;;7.26;84.97;100036.81;5000655;28;20033;-74
2022/12/02 08:41:38;;;;;;;21.25;11.75;;;;;;;7.29;86.32;100039.00;5026687;28;20382;-79
2022/12/02 08:44:04;;;;;;;26.25;16.73;;;;;;;7.13;87.22;100041.19;5012626;28;20034;-71
2022/12/02 08:46:31;;;;;;;29.10;13.40;;;;;;;6.97;87.58;100039.69;5031838;28;20076;-69
2022/12/02 08:48:57;;;;;;;27.40;12.73;;;;;;;6.72;87.94;100041.66;5029515;28;20029;-72
2022/12/02 08:51:23;;;;;;;27.40;15.30;;;;;;;7.25;88.46;100039.94;5020227;28;20033;-67
2022/12/02 08:53:48;;;;;;;38.08;20.20;;;;;;;7.39;88.90;100038.06;5017243;28;20065;-69
2022/12/02 08:56:14;;;;;;;23.55;14.60;;;;;;;7.35;88.79;100039.75;5018420;28;20021;-67
2022/12/02 08:58:39;;;;;;;22.15;12.75;;;;;;;7.18;88.88;100043.06;5030956;28;20504;-70
2022/12/02 09:01:05;;;;;;;813.33;323.90;;;;;;;7.49;87.73;100050.19;5006462;28;20087;-71
2022/12/02 09:03:31;;;;;;;94.40;37.65;;;;;;;7.50;87.44;100035.13;5008947;28;20169;-66
2022/12/02 09:05:56;;;;;;;29.13;13.70;;;;;;;7.45;86.96;100036.03;5031808;28;20029;-66
2022/12/02 09:08:22;;;;;;;23.23;12.75;;;;;;;7.54;87.89;100038.97;5031428;28;20029;-66
2022/12/02 09:10:47;;;;;;;25.40;12.50;;;;;;;7.43;88.29;100036.31;5031593;28;20056;-65
2022/12/02 09:13:13;;;;;;;30.92;20.13;;;;;;;7.67;87.79;100027.06;5031373;28;20032;-66
2022/12/02 09:15:38;;;;;;;23.58;12.88;;;;;;;7.46;86.19;100029.34;5030715;28;20028;-66
2022/12/02 09:18:04;;;;;;;20.92;12.32;;;;;;;7.49;86.92;100041.84;5029259;28;20017;-66
2022/12/02 09:20:29;;;;;;;17.48;11.35;;;;;;;7.71;86.46;100028.09;5013631;28;20029;-66
2022/12/02 09:22:55;;;;;;;21.33;11.98;;;;;;;7.61;86.01;100033.00;5013547;28;20052;-66
2022/12/02 09:25:21;;;;;;;18.05;10.68;;;;;;;7.78;86.96;100032.47;5013198;28;20040;-66
2022/12/02 09:27:46;;;;;;;12.32;7.88;;;;;;;7.61;84.91;100021.88;5030642;28;20033;-66
2022/12/02 09:30:13;;;;;;;9.98;6.05;;;;;;;7.71;84.98;100019.75;5012492;28;20504;-66
2022/12/02 09:32:38;;;;;;;11.68;6.68;;;;;;;7.73;83.05;100027.81;5029295;28;20079;-66
2022/12/02 09:35:04;;;;;;;11.20;6.18;;;;;;;7.88;83.61;100032.31;5012926;28;20026;-66
2022/12/02 09:37:30;;;;;;;10.98;6.55;;;;;;;7.73;83.79;100027.81;5030251;28;20033;-67
2022/12/02 09:39:55;;;;;;;10.38;6.95;;;;;;;7.71;83.79;100028.09;5030786;28;20108;-66
2022/12/02 09:42:21;;;;;;;8.45;5.32;;;;;;;7.56;83.59;100031.13;5013408;28;20017;-66
2022/12/02 09:44:48;;;;;;;8.43;4.90;;;;;;;7.64;83.16;100027.69;5030543;28;20029;-66
2022/12/02 09:47:15;;;;;;;9.25;5.63;;;;;;;7.97;82.63;100021.31;5028738;28;20132;-66
2022/12/02 09:49:42;;;;;;;9.95;6.82;;;;;;;8.16;82.00;100024.06;5013033;28;20112;-66
2022/12/02 09:52:14;;;;;;;11.30;6.88;;;;;;;8.18;82.14;100015.41;5027158;28;20030;-67
2022/12/02 09:54:41;;;;;;;11.93;7.63;;;;;;;8.20;82.34;100016.72;4988011;28;20031;-66
2022/12/02 09:57:15;;;;;;;15.43;9.85;;;;;;;8.35;80.73;100018.41;5018675;28;20520;-66
2022/12/02 09:59:41;;;;;;;23.55;13.18;;;;;;;8.30;81.33;100021.31;4989214;28;20463;-66
2022/12/02 10:02:34;;;;;;;16.02;9.75;;;;;;;8.47;80.79;100017.09;5001652;28;20044;-66
2022/12/02 10:05:10;;;;;;;15.05;10.18;;;;;;;8.63;80.42;100012.94;5025162;28;20029;-66
2022/12/02 10:07:36;;;;;;;15.73;10.75;;;;;;;8.46;80.55;100016.28;5016368;28;20575;-67
2022/12/02 10:10:04;;;;;;;13.00;8.35;;;;;;;8.22;81.95;100011.69;5021212;28;20029;-66
2022/12/02 10:12:29;;;;;;;19.08;10.25;;;;;;;8.24;81.26;100003.84;5010266;28;20025;-66
2022/12/02 10:14:58;;;;;;;136.38;51.60;;;;;;;8.06;80.68;100004.72;5014453;28;20029;-66
2022/12/02 10:17:23;;;;;;;44.03;21.70;;;;;;;8.05;81.15;100014.22;4999968;28;20493;-65
2022/12/02 10:19:51;;;;;;;15.38;9.20;;;;;;;8.31;81.66;100014.59;4977885;28;20061;-66
2022/12/02 10:22:18;;;;;;;23.27;12.95;;;;;;;8.62;78.95;100016.00;4978274;28;20034;-68
2022/12/02 10:24:44;;;;;;;19.80;11.32;;;;;;;8.73;79.00;100014.69;5004965;28;20471;-73
2022/12/02 10:27:30;;;;;;;12.80;7.65;;;;;;;8.79;78.75;100016.22;5014795;28;20022;-70
2022/12/02 10:30:22;;;;;;;69.35;30.58;;;;;;;8.91;79.50;100012.09;5015334;28;20519;-71
2022/12/02 10:33:03;;;;;;;24.42;12.52;;;;;;;8.55;79.31;100011.66;5001439;28;20029;-72
2022/12/02 10:35:45;;;;;;;12.13;7.82;;;;;;;8.39;79.59;100013.06;4983216;28;20038;-70
2022/12/02 10:38:33;;;;;;;16.77;8.90;;;;;;;8.39;79.31;100019.47;5003277;28;20524;-71
2022/12/02 10:41:14;;;;;;;17.67;10.45;;;;;;;8.55;79.16;100017.22;5002640;28;20080;-70
2022/12/02 10:43:41;;;;;;;24.45;12.38;;;;;;;8.83;79.99;100017.28;5012660;28;20030;-69
2022/12/02 10:46:13;;;;;;;15.82;9.73;;;;;;;8.60;77.45;100007.13;5012819;28;20080;-71
2022/12/02 10:48:39;;;;;;;12.73;8.40;;;;;;;8.49;78.91;100003.66;5012758;28;20045;-70
2022/12/02 10:51:04;;;;;;;18.52;11.32;;;;;;;8.71;78.59;100006.63;4989958;28;20080;-70
2022/12/02 10:53:30;;;;;;;15.93;9.48;;;;;;;8.83;77.77;100002.47;4999451;28;20046;-69
2022/12/02 10:55:56;;;;;;;17.10;9.57;;;;;;;8.92;76.38;99997.84;4992742;28;20058;-71
2022/12/02 10:58:28;;;;;;;17.45;10.10;;;;;;;9.14;75.73;100010.22;5010905;28;20116;-71
2022/12/02 11:00:55;;;;;;;16.30;9.65;;;;;;;9.21;75.78;100005.03;5010531;28;20050;-68
2022/12/02 11:03:21;;;;;;;14.52;9.90;;;;;;;9.32;75.52;99994.47;5012123;28;20029;-67
2022/12/02 11:05:47;;;;;;;14.65;8.93;;;;;;;9.37;75.32;100004.72;5007961;28;20100;-67
2022/12/02 11:08:21;;;;;;;12.82;8.25;;;;;;;9.04;76.05;99999.28;4992128;28;20034;-71
2022/12/02 11:10:50;;;;;;;12.77;7.63;;;;;;;8.96;74.87;99995.25;5007928;28;20029;-67
2022/12/02 11:13:48;;;;;;;12.27;8.20;;;;;;;9.19;75.62;99998.94;5003117;28;20069;-68
2022/12/02 11:16:34;;;;;;;14.52;8.48;;;;;;;9.27;75.27;100002.94;5008761;28;20037;-65
2022/12/02 11:19:09;;;;;;;22.33;13.73;;;;;;;9.31;77.20;100003.16;4979114;28;20041;-67
2022/12/02 11:21:35;;;;;;;15.73;10.13;;;;;;;9.54;74.91;99990.88;4987044;28;20484;-67
2022/12/02 11:24:22;;;;;;;12.82;8.45;;;;;;;9.77;74.71;99995.66;5005446;28;20096;-68
2022/12/02 11:27:01;;;;;;;12.23;7.50;;;;;;;9.86;71.29;99993.75;5002163;28;20048;-66
2022/12/02 11:29:42;;;;;;;12.70;8.50;;;;;;;9.80;70.87;99995.03;4997096;28;20512;-68